< < Back
Terminal Aerodrome Forecast


Current Version              Previous Versions:   1  2  3  4  5  6  7  8  9  

Terminal Aerodrome Forecast

220
FTUS42 KTAE 212300
TAFTLH
TAF
KTLH 212320Z 2200/2224 35006KT P6SM FEW250
     FM220200 00000KT P6SM SKC
     FM221400 02007KT P6SM SKC=

Latest METAR

089
SAUS80 KWBC 221400
MTRTLH
METAR KTLH 221353Z 01005KT 10SM FEW250 20/10 A3006 RMK AO2 SLP179
T02000100 $


USA.gov is the U.S. government's official web portal to all federal, state and local government web resources and services.